createdAt,value
2018-04-12T00:00:29.766Z,2.37
2018-04-12T00:02:55.691Z,2.13
2018-04-12T00:05:21.618Z,1.97
2018-04-12T00:07:47.487Z,1.97
2018-04-12T00:10:13.389Z,2.10
2018-04-12T00:12:39.256Z,1.90
2018-04-12T00:15:05.127Z,2.47
2018-04-12T00:17:31.002Z,2.17
2018-04-12T00:19:56.935Z,2.30
2018-04-12T00:22:22.811Z,2.20
2018-04-12T00:24:48.700Z,2.20
2018-04-12T00:27:14.583Z,2.50
2018-04-12T00:29:40.494Z,2.50
2018-04-12T00:32:06.387Z,2.50
2018-04-12T00:34:32.254Z,2.30
2018-04-12T00:36:58.145Z,2.50
2018-04-12T00:39:24.003Z,2.60
2018-04-12T00:41:49.934Z,2.50
2018-04-12T00:44:15.818Z,2.30
2018-04-12T00:46:41.691Z,2.20
2018-04-12T00:49:07.561Z,2.30
2018-04-12T00:51:33.561Z,2.17
2018-04-12T00:54:04.503Z,2.50
2018-04-12T00:56:30.424Z,2.20
2018-04-12T00:58:56.279Z,2.10
2018-04-12T01:01:22.184Z,2.40
2018-04-12T01:03:48.099Z,2.10
2018-04-12T01:06:13.983Z,2.00
2018-04-12T01:08:40.057Z,2.30
2018-04-12T01:11:05.911Z,2.40
2018-04-12T01:13:31.826Z,2.23
2018-04-12T01:15:57.724Z,2.50
2018-04-12T01:18:23.593Z,2.10
2018-04-12T01:20:49.528Z,1.63
2018-04-12T01:23:15.398Z,2.00
2018-04-12T01:25:41.264Z,2.30
2018-04-12T01:28:07.167Z,2.00
2018-04-12T01:30:33.034Z,1.90
2018-04-12T01:33:04.851Z,1.90
2018-04-12T01:35:30.787Z,2.17
2018-04-12T01:37:56.674Z,2.00
2018-04-12T01:40:22.626Z,2.20
2018-04-12T01:42:48.485Z,2.17
2018-04-12T01:45:14.385Z,2.07
2018-04-12T01:47:40.251Z,2.03
2018-04-12T01:50:06.131Z,2.40
2018-04-12T01:52:32.110Z,2.30
2018-04-12T01:54:58.053Z,2.60
2018-04-12T01:57:23.951Z,2.40
2018-04-12T01:59:49.853Z,2.70
2018-04-12T02:02:15.954Z,2.50
2018-04-12T02:04:41.870Z,2.47
2018-04-12T02:07:07.759Z,2.30
2018-04-12T02:09:33.638Z,2.00
2018-04-12T02:11:59.515Z,2.07
2018-04-12T02:14:25.427Z,2.40
2018-04-12T02:16:51.343Z,1.90
2018-04-12T02:19:17.200Z,1.80
2018-04-12T02:21:43.091Z,2.13
2018-04-12T02:24:08.972Z,2.00
2018-04-12T02:26:34.842Z,2.30
2018-04-12T02:29:00.691Z,2.50
2018-04-12T02:31:26.579Z,2.47
2018-04-12T02:33:52.449Z,2.30
2018-04-12T02:36:18.315Z,2.60
2018-04-12T02:38:44.195Z,2.60
2018-04-12T02:41:10.054Z,3.10
2018-04-12T02:43:35.933Z,2.93
2018-04-12T02:46:01.827Z,2.40
2018-04-12T02:48:27.902Z,2.70
2018-04-12T02:50:53.772Z,2.50
2018-04-12T02:53:19.624Z,2.73
2018-04-12T02:55:45.520Z,2.73
2018-04-12T02:58:11.390Z,2.50
2018-04-12T03:00:37.294Z,2.60
2018-04-12T03:03:03.162Z,2.50
2018-04-12T03:05:29.016Z,2.70
2018-04-12T03:07:54.899Z,2.60
2018-04-12T03:10:20.765Z,2.77
2018-04-12T03:12:46.679Z,2.60
2018-04-12T03:15:12.565Z,2.57
2018-04-12T03:17:38.455Z,2.37
2018-04-12T03:20:04.328Z,2.83
2018-04-12T03:22:30.208Z,2.73
2018-04-12T03:24:56.102Z,2.80
2018-04-12T03:27:21.963Z,2.60
2018-04-12T03:29:47.869Z,2.70
2018-04-12T03:32:13.740Z,2.83
2018-04-12T03:34:39.614Z,3.30
2018-04-12T03:37:05.559Z,2.60
2018-04-12T03:39:31.450Z,2.90
2018-04-12T03:41:57.329Z,3.30
2018-04-12T03:44:23.192Z,3.00
2018-04-12T03:46:49.060Z,3.10
2018-04-12T03:49:14.963Z,2.80
2018-04-12T03:51:40.854Z,2.87
2018-04-12T03:54:06.763Z,2.90
2018-04-12T03:56:32.619Z,3.13
2018-04-12T03:58:58.550Z,2.83
2018-04-12T04:01:24.424Z,2.77
2018-04-12T04:03:50.303Z,3.40
2018-04-12T04:06:16.173Z,2.93
2018-04-12T04:08:42.042Z,3.10
2018-04-12T04:11:08.003Z,3.50
2018-04-12T04:13:33.903Z,3.00
2018-04-12T04:16:05.728Z,2.87
2018-04-12T04:18:37.652Z,3.10
2018-04-12T04:21:08.501Z,2.73
2018-04-12T04:23:34.368Z,2.63
2018-04-12T04:26:00.271Z,2.90
2018-04-12T04:28:26.213Z,3.07
2018-04-12T04:30:52.134Z,2.67
2018-04-12T04:33:18.035Z,2.93
2018-04-12T04:35:43.936Z,3.50
2018-04-12T04:38:09.813Z,3.80
2018-04-12T04:40:35.724Z,2.93
2018-04-12T04:43:01.630Z,3.10
2018-04-12T04:45:27.557Z,3.20
2018-04-12T04:47:53.461Z,4.40
2018-04-12T04:50:19.401Z,3.00
2018-04-12T04:52:45.280Z,2.93
2018-04-12T04:55:11.156Z,2.90
2018-04-12T04:57:37.039Z,3.40
2018-04-12T05:00:02.930Z,3.00
2018-04-12T05:02:28.876Z,2.80
2018-04-12T05:04:54.774Z,2.70
2018-04-12T05:07:20.668Z,2.40
2018-04-12T05:09:46.580Z,2.30
2018-04-12T05:12:13.647Z,1.70
2018-04-12T05:14:39.558Z,1.73
2018-04-12T05:17:05.585Z,1.60
2018-04-12T05:19:31.459Z,1.70
2018-04-12T05:21:57.384Z,1.60
2018-04-12T05:24:23.359Z,1.63
2018-04-12T05:26:49.279Z,1.80
2018-04-12T05:29:16.285Z,1.50
2018-04-12T05:31:42.171Z,1.80
2018-04-12T05:34:08.751Z,1.67
2018-04-12T05:36:34.644Z,1.73
2018-04-12T05:39:00.529Z,1.80
2018-04-12T05:41:26.432Z,1.43
2018-04-12T05:43:52.308Z,1.37
2018-04-12T05:46:18.215Z,1.47
2018-04-12T05:48:44.107Z,1.57
2018-04-12T05:51:10.004Z,1.30
2018-04-12T05:53:35.939Z,1.80
2018-04-12T05:56:01.832Z,1.50
2018-04-12T05:58:27.723Z,1.70
2018-04-12T06:00:53.628Z,1.53
2018-04-12T06:03:19.504Z,1.50
2018-04-12T06:05:45.412Z,1.60
2018-04-12T06:08:11.303Z,1.50
2018-04-12T06:10:37.176Z,1.63
2018-04-12T06:13:03.100Z,1.50
2018-04-12T06:15:28.979Z,1.33
2018-04-12T06:17:54.911Z,1.40
2018-04-12T06:20:20.791Z,1.47
2018-04-12T06:22:46.686Z,1.70
2018-04-12T06:25:12.552Z,1.60
2018-04-12T06:27:38.417Z,1.60
2018-04-12T06:30:04.348Z,1.50
2018-04-12T06:32:30.216Z,1.40
2018-04-12T06:34:56.081Z,1.70
2018-04-12T06:37:21.955Z,1.37
2018-04-12T06:39:47.860Z,1.50
2018-04-12T06:42:13.769Z,1.70
2018-04-12T06:44:39.644Z,1.50
2018-04-12T06:47:05.563Z,1.67
2018-04-12T06:49:31.471Z,1.43
2018-04-12T06:51:57.370Z,1.40
2018-04-12T06:54:23.277Z,1.50
2018-04-12T06:56:49.181Z,1.27
2018-04-12T06:59:15.060Z,1.80
2018-04-12T07:01:40.971Z,1.30
2018-04-12T07:04:06.879Z,1.60
2018-04-12T07:06:32.786Z,3.57
2018-04-12T07:08:58.699Z,1.40
2018-04-12T07:11:24.604Z,1.40
2018-04-12T07:13:50.530Z,1.47
2018-04-12T07:16:16.408Z,1.50
2018-04-12T07:18:42.323Z,1.53
2018-04-12T07:21:08.216Z,1.30
2018-04-12T07:23:34.161Z,1.57
2018-04-12T07:26:00.048Z,1.57
2018-04-12T07:28:25.924Z,1.40
2018-04-12T07:30:51.815Z,1.47
2018-04-12T07:33:17.692Z,1.60
2018-04-12T07:35:43.567Z,1.60
2018-04-12T07:38:09.496Z,1.50
2018-04-12T07:40:35.408Z,1.43
2018-04-12T07:43:01.304Z,1.30
2018-04-12T07:45:27.209Z,1.60
2018-04-12T07:47:53.129Z,1.73
2018-04-12T07:50:19.018Z,1.30
2018-04-12T07:52:44.934Z,1.33
2018-04-12T07:55:10.846Z,1.30
2018-04-12T07:57:36.755Z,1.60
2018-04-12T08:00:02.664Z,2.07
2018-04-12T08:02:28.555Z,1.43
2018-04-12T08:04:54.422Z,1.70
2018-04-12T08:07:20.371Z,1.77
2018-04-12T08:09:46.283Z,1.83
2018-04-12T08:12:12.188Z,2.10
2018-04-12T08:14:38.104Z,2.00
2018-04-12T08:17:04.011Z,1.50
2018-04-12T08:19:29.916Z,1.80
2018-04-12T08:21:55.834Z,2.53
2018-04-12T08:24:21.715Z,1.57
2018-04-12T08:26:47.590Z,1.50
2018-04-12T08:29:13.518Z,1.40
2018-04-12T08:31:39.431Z,1.40
2018-04-12T08:34:05.318Z,1.50
2018-04-12T08:36:31.188Z,1.60
2018-04-12T08:38:57.064Z,1.90
2018-04-12T08:41:22.987Z,1.40
2018-04-12T08:43:48.860Z,1.50
2018-04-12T08:46:14.747Z,1.70
2018-04-12T08:48:40.622Z,1.50
2018-04-12T08:51:06.496Z,1.47
2018-04-12T08:53:32.396Z,1.50
2018-04-12T08:55:58.352Z,1.53
2018-04-12T08:58:24.243Z,1.60
2018-04-12T09:00:50.179Z,1.70
2018-04-12T09:03:16.064Z,1.90
2018-04-12T09:05:41.968Z,1.70
2018-04-12T09:08:07.848Z,1.83
2018-04-12T09:10:33.733Z,1.43
2018-04-12T09:12:59.604Z,1.43
2018-04-12T09:15:25.650Z,1.53
2018-04-12T09:17:51.573Z,1.67
2018-04-12T09:20:17.448Z,1.63
2018-04-12T09:22:43.327Z,1.40
2018-04-12T09:25:09.207Z,1.30
2018-04-12T09:27:35.075Z,1.50
2018-04-12T09:30:01.839Z,1.80
2018-04-12T09:32:27.768Z,1.63
2018-04-12T09:34:53.653Z,1.40
2018-04-12T09:37:19.551Z,1.67
2018-04-12T09:39:45.478Z,1.70
2018-04-12T09:42:11.409Z,1.40
2018-04-12T09:44:37.287Z,1.63
2018-04-12T09:47:03.153Z,1.50
2018-04-12T09:49:29.146Z,1.77
2018-04-12T09:51:54.979Z,1.80
2018-04-12T09:54:20.904Z,1.80
2018-04-12T09:56:46.777Z,1.90
2018-04-12T09:59:12.659Z,1.90
2018-04-12T10:01:44.671Z,2.07
2018-04-12T10:04:16.435Z,1.50
2018-04-12T10:06:42.340Z,1.80
2018-04-12T10:09:14.188Z,1.70
2018-04-12T10:11:40.080Z,1.60
2018-04-12T10:14:05.960Z,1.80
2018-04-12T10:16:31.888Z,1.60
2018-04-12T10:18:57.811Z,1.60
2018-04-12T10:21:23.690Z,1.60
2018-04-12T10:23:49.569Z,1.70
2018-04-12T10:26:15.442Z,1.77
2018-04-12T10:28:41.348Z,1.60
2018-04-12T10:31:07.260Z,1.90
2018-04-12T10:33:33.163Z,1.60
2018-04-12T10:35:59.039Z,1.77
2018-04-12T10:38:24.903Z,1.80
2018-04-12T10:40:50.821Z,1.60
2018-04-12T10:43:16.719Z,1.70
2018-04-12T10:45:42.634Z,1.63
2018-04-12T10:48:08.512Z,1.60
2018-04-12T10:50:34.392Z,1.60
2018-04-12T10:53:00.291Z,1.80
2018-04-12T10:55:26.163Z,1.40
2018-04-12T10:57:52.043Z,1.63
2018-04-12T11:00:17.935Z,1.60
2018-04-12T11:02:43.815Z,1.70
2018-04-12T11:05:24.652Z,2.00
2018-04-12T11:07:50.528Z,1.67
2018-04-12T11:10:16.434Z,1.60
2018-04-12T11:12:42.309Z,1.80
2018-04-12T11:15:08.192Z,1.83
2018-04-12T11:17:34.104Z,1.50
2018-04-12T11:19:59.985Z,1.80
2018-04-12T11:22:25.871Z,2.00
2018-04-12T11:24:51.839Z,1.67
2018-04-12T11:27:17.704Z,1.63
2018-04-12T11:29:43.596Z,1.70
2018-04-12T11:32:09.468Z,1.80
2018-04-12T11:34:35.351Z,1.80
2018-04-12T11:37:01.260Z,1.90
2018-04-12T11:39:27.169Z,1.90
2018-04-12T11:41:53.060Z,1.80
2018-04-12T11:44:18.939Z,1.90
2018-04-12T11:46:44.849Z,1.80
2018-04-12T11:49:10.723Z,1.97
2018-04-12T11:51:36.604Z,2.00
2018-04-12T11:54:02.512Z,1.90
2018-04-12T11:56:28.437Z,1.70
2018-04-12T11:58:54.349Z,1.60
2018-04-12T12:01:20.270Z,1.80
2018-04-12T12:03:46.190Z,1.77
2018-04-12T12:06:12.119Z,2.10
2018-04-12T12:08:38.054Z,1.73
2018-04-12T12:11:03.963Z,2.20
2018-04-12T12:13:29.897Z,1.90
2018-04-12T12:15:55.846Z,1.87
2018-04-12T12:18:21.801Z,1.70
2018-04-12T12:20:47.728Z,2.00
2018-04-12T12:23:13.690Z,2.07
2018-04-12T12:25:39.575Z,1.80
2018-04-12T12:28:05.472Z,1.80
2018-04-12T12:30:31.340Z,1.80
2018-04-12T12:32:57.269Z,1.87
2018-04-12T12:35:23.143Z,1.70
2018-04-12T12:37:49.055Z,1.80
2018-04-12T12:40:14.963Z,1.70
2018-04-12T12:42:40.853Z,1.73
2018-04-12T12:45:06.720Z,1.53
2018-04-12T12:47:32.628Z,1.70
2018-04-12T12:49:58.558Z,1.50
2018-04-12T12:52:24.501Z,1.80
2018-04-12T12:54:50.522Z,1.60
2018-04-12T12:57:16.469Z,1.60
2018-04-12T12:59:42.410Z,1.77
2018-04-12T13:02:08.370Z,1.60
2018-04-12T13:04:34.290Z,1.77
2018-04-12T13:07:00.219Z,1.70
2018-04-12T13:09:26.157Z,1.57
2018-04-12T13:11:52.069Z,1.50
2018-04-12T13:14:17.982Z,1.60
2018-04-12T13:16:43.885Z,1.93
2018-04-12T13:19:09.830Z,1.70
2018-04-12T13:21:35.757Z,1.77
2018-04-12T13:24:01.697Z,1.70
2018-04-12T13:26:27.619Z,1.60
2018-04-12T13:28:53.558Z,1.60
2018-04-12T13:31:34.430Z,1.80
2018-04-12T13:34:00.354Z,1.80
2018-04-12T13:36:26.267Z,1.60
2018-04-12T13:38:52.177Z,1.70
2018-04-12T13:41:18.110Z,1.80
2018-04-12T13:43:44.057Z,1.77
2018-04-12T13:46:10.030Z,1.60
2018-04-12T13:48:35.971Z,1.60
2018-04-12T13:51:01.897Z,1.90
2018-04-12T13:53:27.856Z,1.67
2018-04-12T13:55:53.870Z,1.60
2018-04-12T13:58:19.798Z,1.70
2018-04-12T14:00:45.737Z,1.50
2018-04-12T14:03:11.657Z,1.70
2018-04-12T14:05:37.568Z,1.50
2018-04-12T14:08:03.538Z,1.40
2018-04-12T14:10:29.458Z,1.83
2018-04-12T14:12:55.361Z,1.50
2018-04-12T14:15:21.292Z,1.60
2018-04-12T14:17:47.198Z,1.73
2018-04-12T14:20:13.134Z,2.10
2018-04-12T14:22:39.035Z,1.70
2018-04-12T14:25:04.955Z,1.80
2018-04-12T14:27:30.870Z,1.87
2018-04-12T14:29:56.793Z,1.50
2018-04-12T14:32:22.738Z,2.07
2018-04-12T14:34:48.661Z,1.73
2018-04-12T14:37:14.581Z,1.70
2018-04-12T14:39:40.482Z,1.70
2018-04-12T14:42:06.410Z,1.67
2018-04-12T14:44:32.329Z,1.57
2018-04-12T14:46:58.283Z,1.70
2018-04-12T14:49:24.197Z,1.43
2018-04-12T14:51:50.149Z,1.50
2018-04-12T14:54:19.090Z,1.80
2018-04-12T14:56:42.034Z,1.70
2018-04-12T14:59:07.949Z,1.40
2018-04-12T15:01:33.861Z,1.30
2018-04-12T15:03:59.766Z,1.57
2018-04-12T15:06:25.790Z,1.60
2018-04-12T15:08:51.764Z,1.40
2018-04-12T15:11:17.700Z,1.57
2018-04-12T15:13:43.608Z,1.50
2018-04-12T15:16:09.510Z,1.60
2018-04-12T15:18:35.430Z,1.70
2018-04-12T15:21:01.409Z,1.70
2018-04-12T15:23:28.208Z,1.47
2018-04-12T15:25:54.110Z,1.57
2018-04-12T15:28:20.062Z,1.63
2018-04-12T15:30:45.970Z,1.30
2018-04-12T15:33:11.905Z,1.50
2018-04-12T15:35:37.825Z,1.70
2018-04-12T15:38:03.735Z,1.67
2018-04-12T15:40:29.665Z,1.37
2018-04-12T15:42:55.567Z,2.10
2018-04-12T15:45:21.521Z,1.30
2018-04-12T15:47:47.450Z,1.37
2018-04-12T15:50:13.354Z,1.40
2018-04-12T15:52:39.304Z,1.60
2018-04-12T15:55:05.232Z,1.30
2018-04-12T15:57:31.150Z,1.60
2018-04-12T15:59:57.105Z,1.30
2018-04-12T16:02:23.010Z,1.57
2018-04-12T16:04:48.917Z,1.40
2018-04-12T16:07:14.861Z,1.50
2018-04-12T16:09:40.766Z,1.47
2018-04-12T16:12:06.682Z,1.53
2018-04-12T16:14:32.586Z,1.70
2018-04-12T16:16:58.503Z,1.70
2018-04-12T16:19:24.433Z,1.80
2018-04-12T16:21:50.377Z,1.90
2018-04-12T16:24:16.290Z,1.60
2018-04-12T16:26:42.227Z,1.87
2018-04-12T16:29:08.134Z,1.53
2018-04-12T16:31:34.070Z,1.70
2018-04-12T16:33:59.989Z,1.30
2018-04-12T16:36:25.914Z,1.73
2018-04-12T16:38:52.086Z,1.40
2018-04-12T16:41:18.022Z,1.70
2018-04-12T16:43:47.094Z,1.60
2018-04-12T16:46:13.022Z,1.73
2018-04-12T16:48:38.942Z,1.60
2018-04-12T16:51:05.504Z,1.90
2018-04-12T16:53:31.456Z,1.67
2018-04-12T16:55:57.473Z,2.00
2018-04-12T16:58:23.424Z,1.50
2018-04-12T17:00:49.326Z,1.57
2018-04-12T17:03:15.234Z,1.70
2018-04-12T17:05:41.153Z,1.63
2018-04-12T17:08:07.087Z,1.90
2018-04-12T17:10:33.011Z,1.80
2018-04-12T17:12:58.918Z,2.00
2018-04-12T17:15:24.838Z,1.67
2018-04-12T17:17:50.753Z,1.53
2018-04-12T17:20:16.698Z,2.00
2018-04-12T17:22:42.601Z,2.27
2018-04-12T17:25:08.509Z,2.03
2018-04-12T17:27:34.430Z,2.07
2018-04-12T17:30:00.333Z,2.10
2018-04-12T17:32:26.262Z,1.60
2018-04-12T17:34:52.175Z,1.60
2018-04-12T17:37:18.096Z,1.70
2018-04-12T17:39:43.997Z,1.80
2018-04-12T17:42:09.930Z,1.60
2018-04-12T17:44:35.861Z,1.60
2018-04-12T17:47:01.761Z,2.20
2018-04-12T17:49:27.690Z,1.70
2018-04-12T17:51:53.613Z,1.67
2018-04-12T17:54:19.570Z,1.60
2018-04-12T17:56:45.502Z,1.80
2018-04-12T17:59:11.437Z,1.53
2018-04-12T18:01:37.349Z,1.57
2018-04-12T18:04:03.289Z,1.40
2018-04-12T18:06:29.209Z,1.47
2018-04-12T18:08:55.211Z,1.70
2018-04-12T18:11:21.133Z,1.53
2018-04-12T18:13:47.052Z,1.53
2018-04-12T18:16:12.971Z,1.47
2018-04-12T18:18:38.912Z,1.50
2018-04-12T18:21:04.841Z,1.50
2018-04-12T18:23:30.761Z,1.67
2018-04-12T18:25:56.700Z,1.50
2018-04-12T18:28:22.614Z,1.53
2018-04-12T18:30:48.521Z,1.60
2018-04-12T18:33:14.477Z,1.40
2018-04-12T18:35:40.405Z,1.57
2018-04-12T18:38:06.316Z,1.70
2018-04-12T18:40:32.222Z,1.63
2018-04-12T18:42:58.151Z,1.47
2018-04-12T18:45:24.099Z,1.70
2018-04-12T18:47:50.042Z,1.37
2018-04-12T18:50:15.962Z,1.87
2018-04-12T18:52:41.862Z,1.67
2018-04-12T18:55:07.893Z,2.60
2018-04-12T18:57:33.930Z,2.50
2018-04-12T18:59:59.876Z,2.40
2018-04-12T19:02:25.784Z,2.37
2018-04-12T19:04:51.716Z,2.00
2018-04-12T19:07:17.634Z,2.30
2018-04-12T19:09:43.567Z,3.10
2018-04-12T19:12:09.514Z,2.63
2018-04-12T19:14:35.415Z,2.80
2018-04-12T19:17:01.335Z,2.30
2018-04-12T19:19:27.269Z,2.40
2018-04-12T19:21:53.226Z,2.70
2018-04-12T19:24:19.352Z,2.40
2018-04-12T19:26:45.303Z,2.30
2018-04-12T19:29:11.218Z,2.27
2018-04-12T19:31:37.149Z,2.30
2018-04-12T19:34:03.053Z,2.57
2018-04-12T19:36:28.962Z,3.17
2018-04-12T19:38:54.948Z,4.90
2018-04-12T19:41:20.869Z,2.83
2018-04-12T19:43:47.461Z,3.10
2018-04-12T19:46:14.486Z,2.43
2018-04-12T19:48:40.406Z,2.30
2018-04-12T19:51:06.329Z,2.57
2018-04-12T19:53:32.265Z,2.03
2018-04-12T19:55:58.256Z,1.90
2018-04-12T19:58:24.162Z,2.20
2018-04-12T20:00:50.165Z,1.90
2018-04-12T20:03:16.107Z,2.10
2018-04-12T20:05:42.029Z,2.10
2018-04-12T20:08:07.957Z,1.90
2018-04-12T20:10:33.939Z,2.20
2018-04-12T20:13:00.953Z,2.47
2018-04-12T20:15:27.142Z,2.10
2018-04-12T20:17:53.094Z,2.13
2018-04-12T20:20:19.052Z,3.10
2018-04-12T20:22:44.998Z,3.03
2018-04-12T20:25:10.977Z,2.70
2018-04-12T20:27:36.901Z,2.03
2018-04-12T20:30:02.852Z,2.23
2018-04-12T20:32:28.817Z,2.23
2018-04-12T20:34:54.734Z,2.50
2018-04-12T20:37:20.694Z,2.03
2018-04-12T20:39:46.602Z,2.00
2018-04-12T20:42:12.527Z,1.77
2018-04-12T20:44:38.468Z,2.00
2018-04-12T20:47:04.373Z,2.33
2018-04-12T20:49:30.302Z,2.10
2018-04-12T20:51:56.224Z,1.90
2018-04-12T20:54:22.151Z,3.10
2018-04-12T20:56:48.097Z,2.70
2018-04-12T20:59:14.564Z,3.00
2018-04-12T21:01:40.597Z,2.93
2018-04-12T21:04:06.517Z,2.63
2018-04-12T21:06:32.427Z,2.47
2018-04-12T21:08:58.376Z,3.00
2018-04-12T21:11:24.293Z,2.90
2018-04-12T21:13:50.281Z,2.47
2018-04-12T21:16:16.205Z,3.07
2018-04-12T21:18:42.148Z,2.90
2018-04-12T21:21:08.102Z,2.40
2018-04-12T21:23:34.021Z,2.83
2018-04-12T21:25:59.965Z,3.40
2018-04-12T21:28:25.921Z,4.00
2018-04-12T21:30:51.833Z,2.93
2018-04-12T21:33:17.797Z,2.83
2018-04-12T21:35:43.706Z,2.27
2018-04-12T21:38:09.645Z,2.50
2018-04-12T21:40:35.562Z,2.33
2018-04-12T21:43:01.515Z,2.40
2018-04-12T21:45:27.502Z,2.20
2018-04-12T21:47:53.409Z,2.37
2018-04-12T21:50:19.325Z,2.30
2018-04-12T21:52:45.254Z,2.27
2018-04-12T21:55:11.168Z,2.33
2018-04-12T21:57:37.108Z,1.83
2018-04-12T22:00:03.060Z,2.03
2018-04-12T22:02:29.030Z,2.03
2018-04-12T22:04:54.981Z,2.30
2018-04-12T22:07:20.932Z,2.07
2018-04-12T22:09:47.117Z,2.10
2018-04-12T22:12:13.114Z,1.87
2018-04-12T22:14:39.065Z,2.00
2018-04-12T22:17:05.065Z,1.77
2018-04-12T22:19:31.068Z,2.00
2018-04-12T22:21:57.059Z,2.03
2018-04-12T22:24:23.016Z,2.10
2018-04-12T22:26:49.030Z,2.10
2018-04-12T22:29:15.027Z,2.00
2018-04-12T22:31:41.004Z,1.83
2018-04-12T22:34:06.990Z,2.20
2018-04-12T22:36:33.005Z,1.60
2018-04-12T22:39:13.885Z,1.73
2018-04-12T22:41:39.878Z,1.70
2018-04-12T22:44:05.833Z,1.90
2018-04-12T22:46:31.806Z,1.80
2018-04-12T22:48:57.794Z,1.57
2018-04-12T22:51:23.805Z,1.70
2018-04-12T22:53:49.777Z,2.10
2018-04-12T22:56:15.763Z,1.97
2018-04-12T22:58:41.746Z,2.67
2018-04-12T23:01:07.717Z,2.50
2018-04-12T23:03:33.673Z,2.13
2018-04-12T23:05:59.635Z,2.10
2018-04-12T23:08:25.589Z,2.17
2018-04-12T23:10:51.553Z,2.37
2018-04-12T23:13:17.588Z,2.27
2018-04-12T23:15:43.592Z,2.00
2018-04-12T23:18:09.551Z,2.03
2018-04-12T23:20:35.562Z,2.00
2018-04-12T23:23:01.522Z,1.80
2018-04-12T23:25:27.467Z,1.77
2018-04-12T23:27:53.429Z,1.83
2018-04-12T23:30:19.370Z,1.90
2018-04-12T23:32:45.361Z,1.83
2018-04-12T23:35:11.309Z,1.97
2018-04-12T23:37:37.260Z,1.93
2018-04-12T23:40:03.233Z,1.80
2018-04-12T23:42:29.193Z,1.90
2018-04-12T23:44:55.173Z,1.70
2018-04-12T23:47:21.138Z,1.93
2018-04-12T23:49:47.084Z,1.77
2018-04-12T23:52:13.141Z,1.97
2018-04-12T23:54:39.131Z,1.90
2018-04-12T23:57:05.097Z,1.90
2018-04-12T23:59:31.046Z,1.90
